createdAt,value
2023-11-18T00:00:13.857Z,6.65
2023-11-18T00:02:44.213Z,6.79
2023-11-18T00:05:12.427Z,7.25
2023-11-18T00:07:40.237Z,6.49
2023-11-18T00:10:09.725Z,6.65
2023-11-18T00:12:42.912Z,6.85
2023-11-18T00:15:12.414Z,6.93
2023-11-18T00:17:40.330Z,7.11
2023-11-18T00:20:13.336Z,6.59
2023-11-18T00:22:43.295Z,6.52
2023-11-18T00:25:12.227Z,6.44
2023-11-18T00:27:40.114Z,6.92
2023-11-18T00:30:14.268Z,7.33
2023-11-18T00:32:42.403Z,7.08
2023-11-18T00:35:11.586Z,6.54
2023-11-18T00:37:39.820Z,7.14
2023-11-18T00:40:11.022Z,7.35
2023-11-18T00:42:39.704Z,7.51
2023-11-18T00:45:08.827Z,7.31
2023-11-18T00:47:36.907Z,7.34
2023-11-18T00:50:09.506Z,6.33
2023-11-18T00:52:39.886Z,6.99
2023-11-18T00:55:08.883Z,7.16
2023-11-18T00:57:36.725Z,7.46
2023-11-18T01:00:04.861Z,7.27
2023-11-18T01:02:32.642Z,7.28
2023-11-18T01:05:00.540Z,7.52
2023-11-18T01:07:28.340Z,7.32
2023-11-18T01:09:56.075Z,6.90
2023-11-18T01:12:23.804Z,6.70
2023-11-18T01:14:51.665Z,6.72
2023-11-18T01:17:19.464Z,7.15
2023-11-18T01:19:47.320Z,6.91
2023-11-18T01:22:15.072Z,6.68
2023-11-18T01:24:42.964Z,6.90
2023-11-18T01:27:11.042Z,6.98
2023-11-18T01:29:40.686Z,7.19
2023-11-18T01:32:12.696Z,7.09
2023-11-18T01:34:41.245Z,7.30
2023-11-18T01:37:09.886Z,6.86
2023-11-18T01:39:37.760Z,6.91
2023-11-18T01:42:05.816Z,7.29
2023-11-18T01:44:35.026Z,7.17
2023-11-18T01:47:04.347Z,7.30
2023-11-18T01:49:33.526Z,7.07
2023-11-18T01:52:02.958Z,7.33
2023-11-18T01:54:30.778Z,7.50
2023-11-18T01:56:58.523Z,6.77
2023-11-18T01:59:27.033Z,7.11
2023-11-18T02:01:58.761Z,7.19
2023-11-18T02:04:27.046Z,6.99
2023-11-18T02:06:54.936Z,7.07
2023-11-18T02:09:30.260Z,6.86
2023-11-18T02:12:11.067Z,7.13
2023-11-18T02:14:40.731Z,7.29
2023-11-18T02:17:10.602Z,6.96
2023-11-18T02:19:40.310Z,6.81
2023-11-18T02:22:08.603Z,6.59
2023-11-18T02:24:41.998Z,6.77
2023-11-18T02:27:21.513Z,6.58
2023-11-18T02:29:50.841Z,6.88
2023-11-18T02:32:24.904Z,6.55
2023-11-18T02:35:12.384Z,6.87
2023-11-18T02:37:48.701Z,6.75
2023-11-18T02:40:42.072Z,7.11
2023-11-18T02:43:10.990Z,6.40
2023-11-18T02:45:38.758Z,6.35
2023-11-18T02:48:08.362Z,6.83
2023-11-18T02:50:37.324Z,6.10
2023-11-18T02:53:06.486Z,6.41
2023-11-18T02:55:34.496Z,5.98
2023-11-18T02:58:06.556Z,6.35
2023-11-18T03:00:35.223Z,6.25
2023-11-18T03:03:04.244Z,6.19
2023-11-18T03:05:32.306Z,6.43
2023-11-18T03:08:00.290Z,6.44
2023-11-18T03:10:28.195Z,6.47
2023-11-18T03:12:55.973Z,6.37
2023-11-18T03:15:24.394Z,6.43
2023-11-18T03:17:53.221Z,6.59
2023-11-18T03:20:24.086Z,6.52
2023-11-18T03:22:52.553Z,6.48
2023-11-18T03:25:23.358Z,6.12
2023-11-18T03:27:51.332Z,6.21
2023-11-18T03:30:19.401Z,6.38
2023-11-18T03:32:47.184Z,6.30
2023-11-18T03:35:15.499Z,6.30
2023-11-18T03:37:44.072Z,6.19
2023-11-18T03:40:13.583Z,6.26
2023-11-18T03:42:43.358Z,6.11
2023-11-18T03:45:11.707Z,5.93
2023-11-18T03:47:39.827Z,5.73
2023-11-18T03:50:10.140Z,5.96
2023-11-18T03:52:39.411Z,5.52
2023-11-18T03:55:07.980Z,5.87
2023-11-18T03:57:35.795Z,6.03
2023-11-18T04:00:04.426Z,5.91
2023-11-18T04:02:38.894Z,6.24
2023-11-18T04:05:09.307Z,6.12
2023-11-18T04:07:37.103Z,6.32
2023-11-18T04:10:07.950Z,6.23
2023-11-18T04:12:35.928Z,6.46
2023-11-18T04:15:05.767Z,6.33
2023-11-18T04:17:33.640Z,5.78
2023-11-18T04:20:01.538Z,5.67
2023-11-18T04:22:29.492Z,5.46
2023-11-18T04:24:57.331Z,5.85
2023-11-18T04:27:25.059Z,6.08
2023-11-18T04:29:53.253Z,6.38
2023-11-18T04:32:21.077Z,6.26
2023-11-18T04:34:50.541Z,6.31
2023-11-18T04:37:19.081Z,6.51
2023-11-18T04:39:47.407Z,6.46
2023-11-18T04:42:16.619Z,5.90
2023-11-18T04:44:44.998Z,6.48
2023-11-18T04:47:12.881Z,6.42
2023-11-18T04:49:41.725Z,6.41
2023-11-18T04:52:09.550Z,6.57
2023-11-18T04:54:37.342Z,6.37
2023-11-18T04:57:05.136Z,6.56
2023-11-18T04:59:32.892Z,6.66
2023-11-18T05:02:00.795Z,6.38
2023-11-18T05:04:28.536Z,6.13
2023-11-18T05:06:56.312Z,6.21
2023-11-18T05:09:24.027Z,6.16
2023-11-18T05:11:52.010Z,6.16
2023-11-18T05:14:20.341Z,6.08
2023-11-18T05:16:48.131Z,6.32
2023-11-18T05:19:16.506Z,6.38
2023-11-18T05:21:45.101Z,6.14
2023-11-18T05:24:12.868Z,6.31
2023-11-18T05:26:41.831Z,6.44
2023-11-18T05:29:09.579Z,6.40
2023-11-18T05:31:38.460Z,6.16
2023-11-18T05:34:06.307Z,6.34
2023-11-18T05:36:38.747Z,6.29
2023-11-18T05:39:06.725Z,6.02
2023-11-18T05:41:36.367Z,5.86
2023-11-18T05:44:04.514Z,5.98
2023-11-18T05:46:33.674Z,5.84
2023-11-18T05:49:08.706Z,5.73
2023-11-18T05:51:36.794Z,6.12
2023-11-18T05:54:04.820Z,6.24
2023-11-18T05:56:33.098Z,6.37
2023-11-18T05:59:03.870Z,6.53
2023-11-18T06:01:31.760Z,6.17
2023-11-18T06:04:00.412Z,6.32
2023-11-18T06:06:28.271Z,6.38
2023-11-18T06:08:55.985Z,6.28
2023-11-18T06:11:24.882Z,6.19
2023-11-18T06:13:53.259Z,6.37
2023-11-18T06:16:25.580Z,6.40
2023-11-18T06:18:57.979Z,6.44
2023-11-18T06:21:29.458Z,6.27
2023-11-18T06:24:01.209Z,6.46
2023-11-18T06:26:29.682Z,6.45
2023-11-18T06:28:57.739Z,6.02
2023-11-18T06:31:25.771Z,6.25
2023-11-18T06:33:54.195Z,5.64
2023-11-18T06:36:22.816Z,6.11
2023-11-18T06:38:51.415Z,5.18
2023-11-18T06:41:23.920Z,5.52
2023-11-18T06:43:54.696Z,5.71
2023-11-18T06:46:35.762Z,5.66
2023-11-18T06:49:12.260Z,5.67
2023-11-18T06:51:40.292Z,5.45
2023-11-18T06:54:11.980Z,5.22
2023-11-18T06:56:44.044Z,4.43
2023-11-18T06:59:16.752Z,4.75
2023-11-18T07:01:46.287Z,4.84
2023-11-18T07:04:16.162Z,5.71
2023-11-18T07:06:44.981Z,5.61
2023-11-18T07:09:19.829Z,5.61
2023-11-18T07:11:49.060Z,5.72
2023-11-18T07:14:17.442Z,5.45
2023-11-18T07:16:45.925Z,5.83
2023-11-18T07:19:22.023Z,5.72
2023-11-18T07:21:50.979Z,5.87
2023-11-18T07:24:19.031Z,5.91
2023-11-18T07:26:47.104Z,5.57
2023-11-18T07:29:15.023Z,5.85
2023-11-18T07:31:44.386Z,5.53
2023-11-18T07:34:12.260Z,5.79
2023-11-18T07:36:40.020Z,5.63
2023-11-18T07:39:16.749Z,5.99
2023-11-18T07:41:45.633Z,5.91
2023-11-18T07:44:14.377Z,5.95
2023-11-18T07:46:44.147Z,5.69
2023-11-18T07:49:12.770Z,5.74
2023-11-18T07:51:41.817Z,5.69
2023-11-18T07:54:11.403Z,5.55
2023-11-18T07:56:39.300Z,5.59
2023-11-18T07:59:09.624Z,5.51
2023-11-18T08:01:37.575Z,5.79
2023-11-18T08:04:08.033Z,5.87
2023-11-18T08:06:35.910Z,5.58
2023-11-18T08:09:04.175Z,5.64
2023-11-18T08:11:31.938Z,5.50
2023-11-18T08:14:00.120Z,5.77
2023-11-18T08:16:29.051Z,5.70
2023-11-18T08:18:57.073Z,5.81
2023-11-18T08:21:24.921Z,5.73
2023-11-18T08:23:54.112Z,5.62
2023-11-18T08:26:22.054Z,5.67
2023-11-18T08:28:49.932Z,5.51
2023-11-18T08:31:18.612Z,5.72
2023-11-18T08:33:47.547Z,5.62
2023-11-18T08:36:15.538Z,5.70
2023-11-18T08:38:45.533Z,5.72
2023-11-18T08:41:13.639Z,5.32
2023-11-18T08:43:42.394Z,5.73
2023-11-18T08:46:10.349Z,5.81
2023-11-18T08:48:39.074Z,5.92
2023-11-18T08:51:09.884Z,5.79
2023-11-18T08:53:42.405Z,5.85
2023-11-18T08:56:15.205Z,5.82
2023-11-18T08:58:45.862Z,5.86
2023-11-18T09:01:17.003Z,6.01
2023-11-18T09:03:49.652Z,5.79
2023-11-18T09:06:27.016Z,5.93
2023-11-18T09:08:55.352Z,5.98
2023-11-18T09:11:24.071Z,5.95
2023-11-18T09:13:55.537Z,5.68
2023-11-18T09:16:24.116Z,5.93
2023-11-18T09:18:52.657Z,6.05
2023-11-18T09:21:26.082Z,6.07
2023-11-18T09:23:54.061Z,5.80
2023-11-18T09:26:22.853Z,6.01
2023-11-18T09:28:54.031Z,5.93
2023-11-18T09:31:22.871Z,5.60
2023-11-18T09:33:54.183Z,5.91
2023-11-18T09:36:23.819Z,5.85
2023-11-18T09:38:51.844Z,5.96
2023-11-18T09:41:19.880Z,5.89
2023-11-18T09:43:49.022Z,6.05
2023-11-18T09:46:19.925Z,6.08
2023-11-18T09:48:54.471Z,5.61
2023-11-18T09:51:26.024Z,5.98
2023-11-18T09:53:55.009Z,5.79
2023-11-18T09:56:47.910Z,5.77
2023-11-18T09:59:31.202Z,5.47
2023-11-18T10:01:59.220Z,5.74
2023-11-18T10:04:29.784Z,5.42
2023-11-18T10:06:57.810Z,5.60
2023-11-18T10:09:44.202Z,5.83
2023-11-18T10:12:13.815Z,5.66
2023-11-18T10:14:45.065Z,5.44
2023-11-18T10:17:15.721Z,5.67
2023-11-18T10:20:13.686Z,5.58
2023-11-18T10:22:42.200Z,5.35
2023-11-18T10:25:10.100Z,5.67
2023-11-18T10:27:39.872Z,4.83
2023-11-18T10:30:20.320Z,4.91
2023-11-18T10:33:06.425Z,4.89
2023-11-18T10:35:34.549Z,4.88
2023-11-18T10:38:05.961Z,5.12
2023-11-18T10:40:37.724Z,5.32
2023-11-18T10:43:11.649Z,4.97
2023-11-18T10:45:45.696Z,5.17
2023-11-18T10:48:17.553Z,4.57
2023-11-18T10:50:47.833Z,4.87
2023-11-18T10:53:17.118Z,5.09
2023-11-18T10:55:45.129Z,5.17
2023-11-18T10:58:15.561Z,4.94
2023-11-18T11:00:56.870Z,5.27
2023-11-18T11:03:25.084Z,5.10
2023-11-18T11:05:55.695Z,5.22
2023-11-18T11:08:29.415Z,5.49
2023-11-18T11:11:04.692Z,5.28
2023-11-18T11:13:33.901Z,5.39
2023-11-18T11:16:05.479Z,5.40
2023-11-18T11:18:36.106Z,5.50
2023-11-18T11:21:08.803Z,5.38
2023-11-18T11:24:09.924Z,5.32
2023-11-18T11:26:43.678Z,5.26
2023-11-18T11:29:29.911Z,5.55
2023-11-18T11:32:31.802Z,5.30
2023-11-18T11:35:09.312Z,5.43
2023-11-18T11:37:37.275Z,5.46
2023-11-18T11:40:10.550Z,5.51
2023-11-18T11:42:41.340Z,5.24
2023-11-18T11:45:21.461Z,5.16
2023-11-18T11:47:51.382Z,5.19
2023-11-18T11:50:33.690Z,5.63
2023-11-18T11:53:09.178Z,5.66
2023-11-18T11:55:39.808Z,4.51
2023-11-18T11:58:36.030Z,4.96
2023-11-18T12:01:31.396Z,5.18
2023-11-18T12:03:59.733Z,5.12
2023-11-18T12:06:29.138Z,5.29
2023-11-18T12:08:57.679Z,5.52
2023-11-18T12:11:25.564Z,5.64
2023-11-18T12:14:34.037Z,5.40
2023-11-18T12:17:08.378Z,5.07
2023-11-18T12:19:49.152Z,5.58
2023-11-18T12:22:25.941Z,4.87
2023-11-18T12:24:59.867Z,4.85
2023-11-18T12:27:44.611Z,4.76
2023-11-18T12:30:27.778Z,5.01
2023-11-18T12:33:20.247Z,4.80
2023-11-18T12:35:54.161Z,5.07
2023-11-18T12:38:47.249Z,5.08
2023-11-18T12:41:41.547Z,5.14
2023-11-18T12:44:34.044Z,5.24
2023-11-18T12:47:15.755Z,4.83
2023-11-18T12:49:44.015Z,4.42
2023-11-18T12:52:14.231Z,4.48
2023-11-18T12:54:45.165Z,4.85
2023-11-18T12:57:15.668Z,4.89
2023-11-18T12:59:43.634Z,4.20
2023-11-18T13:02:19.559Z,4.22
2023-11-18T13:04:50.848Z,4.26
2023-11-18T13:07:19.791Z,4.57
2023-11-18T13:09:48.345Z,4.77
2023-11-18T13:12:16.645Z,5.10
2023-11-18T13:14:44.568Z,4.63
2023-11-18T13:17:19.148Z,4.66
2023-11-18T13:19:48.677Z,4.65
2023-11-18T13:22:20.263Z,4.45
2023-11-18T13:24:48.194Z,4.50
2023-11-18T13:27:20.623Z,4.51
2023-11-18T13:29:53.718Z,4.36
2023-11-18T13:32:24.959Z,3.89
2023-11-18T13:34:53.225Z,4.35
2023-11-18T13:37:24.062Z,4.16
2023-11-18T13:40:01.149Z,4.72
2023-11-18T13:42:29.378Z,4.54
2023-11-18T13:45:13.322Z,4.94
2023-11-18T13:47:46.482Z,4.49
2023-11-18T13:50:15.250Z,4.43
2023-11-18T13:52:43.122Z,4.78
2023-11-18T13:55:15.842Z,4.68
2023-11-18T13:57:44.647Z,4.89
2023-11-18T14:00:16.946Z,5.02
2023-11-18T14:02:45.203Z,5.14
2023-11-18T14:05:20.660Z,5.14
2023-11-18T14:07:49.682Z,4.77
2023-11-18T14:10:20.616Z,4.49
2023-11-18T14:13:18.405Z,4.64
2023-11-18T14:15:48.410Z,3.89
2023-11-18T14:18:16.339Z,3.72
2023-11-18T14:20:44.121Z,3.99
2023-11-18T14:23:12.624Z,4.13
2023-11-18T14:25:40.588Z,4.19
2023-11-18T14:28:10.124Z,4.17
2023-11-18T14:30:38.202Z,4.18
2023-11-18T14:33:06.231Z,4.28
2023-11-18T14:35:35.171Z,3.83
2023-11-18T14:38:03.199Z,4.04
2023-11-18T14:40:31.114Z,4.16
2023-11-18T14:42:59.487Z,4.48
2023-11-18T14:45:27.383Z,4.02
2023-11-18T14:47:57.381Z,4.24
2023-11-18T14:50:27.863Z,4.50
2023-11-18T14:53:01.279Z,4.55
2023-11-18T14:55:33.980Z,4.41
2023-11-18T14:58:01.842Z,4.63
2023-11-18T15:00:33.426Z,4.67
2023-11-18T15:03:01.594Z,4.68
2023-11-18T15:05:30.308Z,4.38
2023-11-18T15:07:59.684Z,4.29
2023-11-18T15:10:28.741Z,4.32
2023-11-18T15:12:59.953Z,4.53
2023-11-18T15:15:36.014Z,4.77
2023-11-18T15:18:10.071Z,4.89
2023-11-18T15:20:38.656Z,4.83
2023-11-18T15:23:06.541Z,4.38
2023-11-18T15:25:35.452Z,4.10
2023-11-18T15:28:05.107Z,4.61
2023-11-18T15:30:34.061Z,4.67
2023-11-18T15:33:02.914Z,4.56
2023-11-18T15:35:31.138Z,4.33
2023-11-18T15:37:59.080Z,3.32
2023-11-18T15:40:27.337Z,3.85
2023-11-18T15:42:55.284Z,4.08
2023-11-18T15:45:27.838Z,4.06
2023-11-18T15:47:56.028Z,3.97
2023-11-18T15:50:24.151Z,3.97
2023-11-18T15:52:55.064Z,3.81
2023-11-18T15:55:23.212Z,3.71
2023-11-18T15:57:54.946Z,3.47
2023-11-18T16:00:26.249Z,3.57
2023-11-18T16:03:01.973Z,3.71
2023-11-18T16:05:35.938Z,4.05
2023-11-18T16:08:05.690Z,3.78
2023-11-18T16:10:33.861Z,3.60
2023-11-18T16:13:03.438Z,3.68
2023-11-18T16:15:31.972Z,2.94
2023-11-18T16:18:00.655Z,3.59
2023-11-18T16:20:33.502Z,3.76
2023-11-18T16:23:05.972Z,3.24
2023-11-18T16:25:37.700Z,3.47
2023-11-18T16:28:08.834Z,3.79
2023-11-18T16:30:38.759Z,3.23
2023-11-18T16:33:07.036Z,3.51
2023-11-18T16:35:35.011Z,3.80
2023-11-18T16:38:03.765Z,3.55
2023-11-18T16:40:34.492Z,3.27
2023-11-18T16:43:03.048Z,3.07
2023-11-18T16:45:31.151Z,3.19
2023-11-18T16:47:59.257Z,2.63
2023-11-18T16:50:30.800Z,2.80
2023-11-18T16:53:00.970Z,3.10
2023-11-18T16:55:32.874Z,3.07
2023-11-18T16:58:02.780Z,3.20
2023-11-18T17:00:32.689Z,3.27
2023-11-18T17:03:00.818Z,3.26
2023-11-18T17:05:31.701Z,3.18
2023-11-18T17:08:01.442Z,3.62
2023-11-18T17:10:30.092Z,3.78
2023-11-18T17:12:59.460Z,3.22
2023-11-18T17:15:27.600Z,3.40
2023-11-18T17:18:02.772Z,2.90
2023-11-18T17:20:32.221Z,3.17
2023-11-18T17:23:00.267Z,3.38
2023-11-18T17:25:28.403Z,2.85
2023-11-18T17:27:56.484Z,3.26
2023-11-18T17:30:24.592Z,2.73
2023-11-18T17:32:55.619Z,3.04
2023-11-18T17:35:23.651Z,3.63
2023-11-18T17:37:51.552Z,3.39
2023-11-18T17:40:22.876Z,3.25
2023-11-18T17:42:54.850Z,3.28
2023-11-18T17:45:25.620Z,3.54
2023-11-18T17:47:53.958Z,3.06
2023-11-18T17:50:22.174Z,3.88
2023-11-18T17:52:52.124Z,3.27
2023-11-18T17:55:20.215Z,2.96
2023-11-18T17:57:48.482Z,3.18
2023-11-18T18:00:27.159Z,2.85
2023-11-18T18:02:55.158Z,2.84
2023-11-18T18:05:25.941Z,3.16
2023-11-18T18:07:54.409Z,3.25
2023-11-18T18:10:28.336Z,2.95
2023-11-18T18:12:56.485Z,3.00
2023-11-18T18:15:27.724Z,3.03
2023-11-18T18:17:56.084Z,3.17
2023-11-18T18:20:24.290Z,3.06
2023-11-18T18:22:52.364Z,3.19
2023-11-18T18:25:20.273Z,3.37
2023-11-18T18:27:51.571Z,2.96
2023-11-18T18:30:19.928Z,3.02
2023-11-18T18:32:50.341Z,2.86
2023-11-18T18:35:18.859Z,2.80
2023-11-18T18:37:46.863Z,2.55
2023-11-18T18:40:15.915Z,3.12
2023-11-18T18:42:43.820Z,3.31
2023-11-18T18:45:12.851Z,3.16
2023-11-18T18:47:40.916Z,3.10
2023-11-18T18:50:09.324Z,2.73
2023-11-18T18:52:37.617Z,2.69
2023-11-18T18:55:07.745Z,2.73
2023-11-18T18:57:35.734Z,2.51
2023-11-18T19:00:05.658Z,2.68
2023-11-18T19:02:33.646Z,3.07
2023-11-18T19:05:02.579Z,3.26
2023-11-18T19:07:33.288Z,2.97
2023-11-18T19:10:01.912Z,3.21
2023-11-18T19:12:29.954Z,3.06
2023-11-18T19:14:58.077Z,3.18
2023-11-18T19:17:26.444Z,2.92
2023-11-18T19:19:54.414Z,2.72
2023-11-18T19:22:22.233Z,2.80
2023-11-18T19:24:51.037Z,2.62
2023-11-18T19:27:18.934Z,2.77
2023-11-18T19:29:47.386Z,2.60
2023-11-18T19:32:15.317Z,3.22
2023-11-18T19:34:43.227Z,2.78
2023-11-18T19:37:12.191Z,3.26
2023-11-18T19:39:41.508Z,3.15
2023-11-18T19:42:10.444Z,3.36
2023-11-18T19:44:38.839Z,3.33
2023-11-18T19:47:08.209Z,3.04
2023-11-18T19:49:36.360Z,3.17
2023-11-18T19:52:05.122Z,2.94
2023-11-18T19:54:33.095Z,2.67
2023-11-18T19:57:01.234Z,2.99
2023-11-18T19:59:30.446Z,3.58
2023-11-18T20:01:59.753Z,3.39
2023-11-18T20:04:27.792Z,3.37
2023-11-18T20:06:55.652Z,3.03
2023-11-18T20:09:23.433Z,3.34
2023-11-18T20:12:04.365Z,3.39
2023-11-18T20:14:34.602Z,3.23
2023-11-18T20:17:02.593Z,3.03
2023-11-18T20:19:30.606Z,3.61
2023-11-18T20:21:58.872Z,3.70
2023-11-18T20:24:26.939Z,3.11
2023-11-18T20:26:54.827Z,3.00
2023-11-18T20:29:22.626Z,3.04
2023-11-18T20:31:50.537Z,2.92
2023-11-18T20:34:19.389Z,2.50
2023-11-18T20:36:47.964Z,2.51
2023-11-18T20:39:18.355Z,2.89
2023-11-18T20:41:48.156Z,2.30
2023-11-18T20:44:16.107Z,2.58
2023-11-18T20:46:46.351Z,2.82
2023-11-18T20:49:15.092Z,3.03
2023-11-18T20:51:42.917Z,2.72
2023-11-18T20:54:10.763Z,2.66
2023-11-18T20:56:38.726Z,2.51
2023-11-18T20:59:06.586Z,2.68
2023-11-18T21:01:34.662Z,2.24
2023-11-18T21:04:02.689Z,2.27
2023-11-18T21:06:30.977Z,2.26
2023-11-18T21:08:58.828Z,2.56
2023-11-18T21:11:28.488Z,2.89
2023-11-18T21:13:56.354Z,2.52
2023-11-18T21:16:24.265Z,2.52
2023-11-18T21:18:52.040Z,2.68
2023-11-18T21:21:20.048Z,2.58
2023-11-18T21:23:49.280Z,2.83
2023-11-18T21:26:18.195Z,2.82
2023-11-18T21:28:48.232Z,2.47
2023-11-18T21:31:18.001Z,2.96
2023-11-18T21:33:45.880Z,2.55
2023-11-18T21:36:16.186Z,2.75
2023-11-18T21:41:20.471Z,2.98
2023-11-18T21:43:48.223Z,3.04
2023-11-18T21:46:16.390Z,2.78
2023-11-18T21:48:44.270Z,3.00
2023-11-18T21:51:12.123Z,2.26
2023-11-18T21:53:41.615Z,2.54
2023-11-18T21:56:09.572Z,2.95
2023-11-18T21:58:38.187Z,2.69
2023-11-18T22:01:06.992Z,2.91
2023-11-18T22:03:35.357Z,2.57
2023-11-18T22:06:03.376Z,2.69
2023-11-18T22:08:31.207Z,3.18
2023-11-18T22:10:59.387Z,2.67
2023-11-18T22:13:27.690Z,2.71
2023-11-18T22:15:55.767Z,3.02
2023-11-18T22:18:23.801Z,2.60
2023-11-18T22:20:51.563Z,2.94
2023-11-18T22:23:19.393Z,2.48
2023-11-18T22:25:49.611Z,2.63
2023-11-18T22:28:17.504Z,2.68
2023-11-18T22:30:46.479Z,2.69
2023-11-18T22:33:25.119Z,2.18
2023-11-18T22:35:55.021Z,2.63
2023-11-18T22:38:23.328Z,2.54
2023-11-18T22:40:51.266Z,2.79
2023-11-18T22:43:20.815Z,2.83
2023-11-18T22:45:51.602Z,2.63
2023-11-18T22:48:20.938Z,2.80
2023-11-18T22:50:48.809Z,2.65
2023-11-18T22:53:18.377Z,2.64
2023-11-18T22:55:46.442Z,3.02
2023-11-18T22:58:14.239Z,2.77
2023-11-18T23:00:57.013Z,2.76
2023-11-18T23:03:27.202Z,2.87
2023-11-18T23:05:55.172Z,2.85
2023-11-18T23:08:23.468Z,2.83
2023-11-18T23:10:52.453Z,2.86
2023-11-18T23:13:21.047Z,2.64
2023-11-18T23:15:49.004Z,2.33
2023-11-18T23:18:16.904Z,2.80
2023-11-18T23:20:44.686Z,3.12
2023-11-18T23:23:13.317Z,2.77
2023-11-18T23:25:41.164Z,2.60
2023-11-18T23:28:09.492Z,3.10
2023-11-18T23:30:37.498Z,2.78
2023-11-18T23:33:05.711Z,2.74
2023-11-18T23:35:34.532Z,3.02
2023-11-18T23:38:02.736Z,3.04
2023-11-18T23:40:30.611Z,2.38
2023-11-18T23:42:58.523Z,2.80
2023-11-18T23:45:26.326Z,2.53
2023-11-18T23:47:55.588Z,2.62
2023-11-18T23:50:26.639Z,2.62
2023-11-18T23:52:54.878Z,2.49
2023-11-18T23:55:25.591Z,2.62
2023-11-18T23:57:53.625Z,2.81
